createdAt,value
2017-11-29T00:01:05.529Z,82.92
2017-11-29T00:03:33.879Z,82.72
2017-11-29T00:06:02.978Z,82.64
2017-11-29T00:08:32.114Z,82.25
2017-11-29T00:11:00.469Z,82.38
2017-11-29T00:13:29.182Z,82.44
2017-11-29T00:15:57.919Z,81.99
2017-11-29T00:18:27.003Z,82.40
2017-11-29T00:20:55.350Z,82.13
2017-11-29T00:23:23.715Z,81.54
2017-11-29T00:25:52.809Z,81.73
2017-11-29T00:28:21.145Z,81.53
2017-11-29T00:30:50.262Z,81.12
2017-11-29T00:33:18.623Z,80.94
2017-11-29T00:35:46.973Z,81.10
2017-11-29T00:38:15.330Z,80.72
2017-11-29T00:40:43.653Z,80.64
2017-11-29T00:43:12.749Z,80.32
2017-11-29T00:45:41.113Z,80.55
2017-11-29T00:48:10.202Z,80.24
2017-11-29T00:50:38.578Z,80.27
2017-11-29T00:53:06.910Z,80.54
2017-11-29T00:55:35.226Z,80.46
2017-11-29T00:58:03.574Z,80.45
2017-11-29T01:00:31.960Z,80.23
2017-11-29T01:03:00.297Z,80.33
2017-11-29T01:05:28.613Z,80.32
2017-11-29T01:07:56.957Z,80.09
2017-11-29T01:10:25.265Z,80.07
2017-11-29T01:12:53.578Z,80.21
2017-11-29T01:15:21.946Z,80.25
2017-11-29T01:17:50.269Z,80.29
2017-11-29T01:20:19.026Z,80.40
2017-11-29T01:22:48.105Z,80.09
2017-11-29T01:25:16.433Z,80.13
2017-11-29T01:27:45.565Z,79.98
2017-11-29T01:30:13.878Z,80.06
2017-11-29T01:32:42.966Z,79.97
2017-11-29T01:35:12.089Z,79.88
2017-11-29T01:37:40.409Z,79.93
2017-11-29T01:40:08.755Z,80.00
2017-11-29T01:42:38.230Z,79.70
2017-11-29T01:45:07.333Z,79.58
2017-11-29T01:47:35.705Z,79.77
2017-11-29T01:50:04.470Z,79.89
2017-11-29T01:52:32.789Z,80.02
2017-11-29T01:55:01.093Z,79.95
2017-11-29T01:57:29.441Z,79.77
2017-11-29T01:59:57.773Z,79.83
2017-11-29T02:02:26.125Z,79.90
2017-11-29T02:04:54.842Z,80.10
2017-11-29T02:07:23.961Z,80.34
2017-11-29T02:09:53.077Z,80.25
2017-11-29T02:12:22.537Z,80.23
2017-11-29T02:14:51.645Z,80.33
2017-11-29T02:17:19.988Z,80.52
2017-11-29T02:19:49.101Z,80.12
2017-11-29T02:22:18.925Z,80.34
2017-11-29T02:24:47.300Z,80.18
2017-11-29T02:27:15.622Z,80.23
2017-11-29T02:29:43.996Z,80.05
2017-11-29T02:32:12.381Z,80.18
2017-11-29T02:34:40.696Z,80.10
2017-11-29T02:37:09.041Z,79.87
2017-11-29T02:39:55.474Z,79.73
2017-11-29T02:42:43.410Z,79.80
2017-11-29T02:45:13.193Z,79.52
2017-11-29T02:47:41.505Z,79.63
2017-11-29T02:50:09.849Z,79.66
2017-11-29T02:52:38.190Z,79.38
2017-11-29T02:55:06.568Z,79.06
2017-11-29T02:57:34.893Z,78.77
2017-11-29T03:00:03.204Z,78.89
2017-11-29T03:02:32.306Z,78.83
2017-11-29T03:05:01.017Z,78.51
2017-11-29T03:07:29.361Z,78.45
2017-11-29T03:09:57.712Z,78.47
2017-11-29T03:12:26.016Z,78.43
2017-11-29T03:14:54.361Z,78.68
2017-11-29T03:17:22.708Z,78.78
2017-11-29T03:19:51.785Z,78.85
2017-11-29T03:22:20.095Z,78.88
2017-11-29T03:24:48.445Z,78.76
2017-11-29T03:27:17.209Z,78.50
2017-11-29T03:29:45.538Z,78.59
2017-11-29T03:32:13.857Z,78.72
2017-11-29T03:34:42.215Z,78.37
2017-11-29T03:37:10.552Z,78.44
2017-11-29T03:39:38.868Z,78.27
2017-11-29T03:42:07.222Z,78.26
2017-11-29T03:44:35.545Z,78.41
2017-11-29T03:47:04.636Z,78.56
2017-11-29T03:49:33.767Z,78.53
2017-11-29T03:52:02.084Z,78.62
2017-11-29T03:54:30.447Z,78.64
2017-11-29T03:56:58.766Z,78.63
2017-11-29T03:59:27.107Z,78.72
2017-11-29T04:01:56.246Z,78.67
2017-11-29T04:04:24.576Z,78.63
2017-11-29T04:06:52.944Z,78.56
2017-11-29T04:09:21.391Z,78.65
2017-11-29T04:11:50.495Z,78.65
2017-11-29T04:14:18.805Z,78.93
2017-11-29T04:16:47.151Z,78.87
2017-11-29T04:19:15.475Z,78.97
2017-11-29T04:21:44.649Z,78.84
2017-11-29T04:24:12.987Z,78.88
2017-11-29T04:26:41.369Z,78.91
2017-11-29T04:29:10.447Z,79.10
2017-11-29T04:31:38.753Z,79.47
2017-11-29T04:34:07.084Z,79.83
2017-11-29T04:36:35.393Z,80.12
2017-11-29T04:39:04.512Z,80.36
2017-11-29T04:41:32.836Z,80.50
2017-11-29T04:44:01.209Z,80.66
2017-11-29T04:46:29.516Z,80.99
2017-11-29T04:48:58.646Z,81.59
2017-11-29T04:51:26.980Z,81.85
2017-11-29T04:53:55.311Z,82.24
2017-11-29T04:56:23.661Z,82.89
2017-11-29T04:58:52.740Z,83.02
2017-11-29T05:01:21.866Z,83.42
2017-11-29T05:03:50.254Z,83.41
2017-11-29T05:06:18.627Z,83.42
2017-11-29T05:08:47.548Z,83.49
2017-11-29T05:11:16.271Z,83.87
2017-11-29T05:13:44.630Z,83.98
2017-11-29T05:16:12.946Z,84.29
2017-11-29T05:18:41.319Z,84.49
2017-11-29T05:21:09.640Z,84.83
2017-11-29T05:23:37.992Z,84.93
2017-11-29T05:26:06.368Z,84.94
2017-11-29T05:28:34.688Z,85.12
2017-11-29T05:31:03.758Z,85.28
2017-11-29T05:33:32.118Z,86.05
2017-11-29T05:36:00.860Z,86.29
2017-11-29T05:38:29.983Z,86.35
2017-11-29T05:40:58.303Z,86.06
2017-11-29T05:43:26.661Z,86.31
2017-11-29T05:45:55.756Z,86.46
2017-11-29T05:48:25.295Z,86.56
2017-11-29T05:50:54.467Z,86.47
2017-11-29T05:53:22.799Z,86.44
2017-11-29T05:55:51.928Z,86.97
2017-11-29T05:58:20.300Z,87.29
2017-11-29T06:00:49.036Z,87.27
2017-11-29T06:03:17.345Z,87.15
2017-11-29T06:05:45.703Z,87.01
2017-11-29T06:08:15.362Z,87.60
2017-11-29T06:10:43.711Z,87.66
2017-11-29T06:13:12.075Z,87.40
2017-11-29T06:15:40.449Z,87.72
2017-11-29T06:18:09.555Z,87.62
2017-11-29T06:20:37.887Z,87.57
2017-11-29T06:23:06.239Z,87.37
2017-11-29T06:25:34.955Z,87.34
2017-11-29T06:28:03.284Z,87.53
2017-11-29T06:30:32.419Z,88.17
2017-11-29T06:33:00.762Z,88.33
2017-11-29T06:35:29.115Z,87.93
2017-11-29T06:37:58.811Z,87.77
2017-11-29T06:40:28.315Z,88.03
2017-11-29T06:42:57.035Z,88.05
2017-11-29T06:45:26.531Z,88.24
2017-11-29T06:47:56.214Z,88.12
2017-11-29T06:50:24.577Z,88.31
2017-11-29T06:52:53.295Z,88.30
2017-11-29T06:55:22.434Z,88.27
2017-11-29T06:57:51.170Z,88.50
2017-11-29T07:00:20.403Z,88.67
2017-11-29T07:02:48.722Z,88.36
2017-11-29T07:05:17.038Z,88.38
2017-11-29T07:07:45.391Z,88.47
2017-11-29T07:10:13.866Z,88.17
2017-11-29T07:12:42.227Z,88.10
2017-11-29T07:15:10.613Z,88.35
2017-11-29T07:17:38.921Z,88.17
2017-11-29T07:20:07.666Z,88.05
2017-11-29T07:22:36.427Z,88.36
2017-11-29T07:25:05.899Z,88.19
2017-11-29T07:27:35.030Z,87.69
2017-11-29T07:30:04.150Z,87.76
2017-11-29T07:32:32.506Z,87.92
2017-11-29T07:35:00.839Z,87.59
2017-11-29T07:37:29.957Z,87.73
2017-11-29T07:39:58.275Z,87.47
2017-11-29T07:42:26.660Z,87.21
2017-11-29T07:44:55.020Z,87.13
2017-11-29T07:47:23.748Z,87.18
2017-11-29T07:49:52.870Z,87.11
2017-11-29T07:52:23.244Z,86.85
2017-11-29T07:54:51.590Z,86.74
2017-11-29T07:57:20.301Z,86.51
2017-11-29T07:59:48.667Z,86.25
2017-11-29T08:02:17.802Z,86.02
2017-11-29T08:04:46.182Z,85.98
2017-11-29T08:07:15.331Z,85.88
2017-11-29T08:09:43.654Z,85.80
2017-11-29T08:12:12.032Z,85.62
2017-11-29T08:14:40.779Z,85.40
2017-11-29T08:17:09.102Z,85.28
2017-11-29T08:19:38.227Z,85.13
2017-11-29T08:22:06.569Z,84.85
2017-11-29T08:24:35.702Z,84.75
2017-11-29T08:27:04.822Z,84.39
2017-11-29T08:29:33.530Z,84.24
2017-11-29T08:32:01.872Z,84.14
2017-11-29T08:34:30.233Z,84.05
2017-11-29T08:36:58.573Z,83.80
2017-11-29T08:39:26.909Z,83.66
2017-11-29T08:41:55.285Z,83.51
2017-11-29T08:44:24.430Z,83.16
2017-11-29T08:46:53.528Z,83.07
2017-11-29T08:49:22.646Z,82.74
2017-11-29T08:51:51.011Z,82.10
2017-11-29T08:54:20.136Z,81.82
2017-11-29T08:56:49.270Z,81.35
2017-11-29T08:59:17.615Z,81.13
2017-11-29T09:01:45.934Z,81.04
2017-11-29T09:04:14.341Z,80.94
2017-11-29T09:06:42.733Z,80.57
2017-11-29T09:09:11.078Z,80.29
2017-11-29T09:11:40.243Z,80.20
2017-11-29T09:14:08.581Z,80.38
2017-11-29T09:16:36.953Z,80.47
2017-11-29T09:19:06.058Z,80.07
2017-11-29T09:21:34.414Z,79.76
2017-11-29T09:24:03.145Z,79.66
2017-11-29T09:26:31.505Z,79.60
2017-11-29T09:28:59.859Z,79.60
2017-11-29T09:31:28.229Z,79.65
2017-11-29T09:33:56.573Z,79.69
2017-11-29T09:36:24.942Z,79.38
2017-11-29T09:38:53.661Z,79.54
2017-11-29T09:41:22.014Z,79.36
2017-11-29T09:43:50.346Z,79.38
2017-11-29T09:46:18.697Z,79.26
2017-11-29T09:48:47.820Z,79.26
2017-11-29T09:51:16.577Z,79.16
2017-11-29T09:53:45.687Z,78.68
2017-11-29T09:56:14.444Z,78.43
2017-11-29T09:58:42.786Z,78.17
2017-11-29T10:01:11.238Z,78.23
2017-11-29T10:03:39.574Z,77.44
2017-11-29T10:06:07.894Z,77.29
2017-11-29T10:08:36.259Z,76.96
2017-11-29T10:11:05.013Z,77.00
2017-11-29T10:13:33.357Z,76.98
2017-11-29T10:16:01.670Z,76.88
2017-11-29T10:18:30.077Z,76.45
2017-11-29T10:20:59.180Z,76.06
2017-11-29T10:23:28.299Z,76.16
2017-11-29T10:25:57.042Z,75.96
2017-11-29T10:28:25.374Z,76.16
2017-11-29T10:30:53.716Z,76.10
2017-11-29T10:33:22.437Z,75.91
2017-11-29T10:35:50.780Z,75.96
2017-11-29T10:38:19.102Z,75.92
2017-11-29T10:40:47.458Z,75.46
2017-11-29T10:43:15.812Z,75.46
2017-11-29T10:45:44.977Z,74.90
2017-11-29T10:48:13.684Z,75.06
2017-11-29T10:50:42.809Z,74.61
2017-11-29T10:53:11.129Z,74.59
2017-11-29T10:55:39.481Z,74.44
2017-11-29T10:58:08.629Z,74.61
2017-11-29T11:00:36.959Z,74.44
2017-11-29T11:03:05.309Z,74.23
2017-11-29T11:05:34.409Z,73.71
2017-11-29T11:08:02.727Z,73.76
2017-11-29T11:10:31.073Z,73.70
2017-11-29T11:12:59.444Z,73.80
2017-11-29T11:15:28.145Z,73.62
2017-11-29T11:17:57.625Z,73.19
2017-11-29T11:20:26.401Z,72.89
2017-11-29T11:22:55.530Z,72.64
2017-11-29T11:25:24.768Z,72.56
2017-11-29T11:27:53.107Z,72.54
2017-11-29T11:30:21.439Z,72.30
2017-11-29T11:32:50.561Z,72.47
2017-11-29T11:35:18.886Z,71.71
2017-11-29T11:37:47.238Z,71.04
2017-11-29T11:40:15.608Z,70.84
2017-11-29T11:42:43.940Z,70.78
2017-11-29T11:45:13.065Z,71.03
2017-11-29T11:47:41.377Z,71.02
2017-11-29T11:50:09.721Z,71.18
2017-11-29T11:52:38.069Z,71.02
2017-11-29T11:55:07.146Z,71.26
2017-11-29T11:57:35.504Z,71.23
2017-11-29T12:00:03.829Z,71.33
2017-11-29T12:02:32.974Z,71.54
2017-11-29T12:05:01.408Z,71.65
2017-11-29T12:07:29.873Z,70.78
2017-11-29T12:09:58.217Z,70.87
2017-11-29T12:12:26.574Z,70.93
2017-11-29T12:14:54.904Z,70.34
2017-11-29T12:17:23.274Z,70.69
2017-11-29T12:19:52.024Z,70.68
2017-11-29T12:22:20.724Z,70.24
2017-11-29T12:24:49.066Z,70.25
2017-11-29T12:27:17.384Z,70.58
2017-11-29T12:29:46.128Z,70.52
2017-11-29T12:32:14.447Z,70.66
2017-11-29T12:34:42.788Z,70.73
2017-11-29T12:37:11.489Z,71.10
2017-11-29T12:39:39.840Z,71.16
2017-11-29T12:42:08.949Z,71.01
2017-11-29T12:44:37.329Z,71.00
2017-11-29T12:47:05.636Z,71.38
2017-11-29T12:52:47.714Z,71.31
2017-11-29T12:55:16.056Z,71.53
2017-11-29T12:57:44.395Z,71.40
2017-11-29T13:00:13.104Z,71.23
2017-11-29T13:02:41.468Z,70.65
2017-11-29T13:05:10.569Z,70.15
2017-11-29T13:07:40.264Z,70.35
2017-11-29T13:10:08.575Z,70.29
2017-11-29T13:12:36.910Z,70.44
2017-11-29T13:15:05.260Z,70.38
2017-11-29T13:17:33.619Z,70.85
2017-11-29T13:20:02.688Z,70.60
2017-11-29T13:22:31.436Z,70.94
2017-11-29T13:24:59.810Z,70.77
2017-11-29T13:27:28.131Z,71.19
2017-11-29T13:29:56.519Z,71.01
2017-11-29T13:32:24.829Z,70.74
2017-11-29T13:34:53.216Z,70.43
2017-11-29T13:37:21.547Z,70.85
2017-11-29T13:39:50.280Z,71.41
2017-11-29T13:42:18.644Z,71.69
2017-11-29T13:44:47.392Z,71.87
2017-11-29T13:47:15.717Z,72.49
2017-11-29T13:49:44.039Z,72.65
2017-11-29T13:52:12.384Z,73.15
2017-11-29T13:54:40.703Z,73.30
2017-11-29T13:57:09.043Z,73.45
2017-11-29T13:59:37.384Z,73.61
2017-11-29T14:02:06.468Z,73.84
2017-11-29T14:04:35.240Z,73.93
2017-11-29T14:07:03.952Z,74.09
2017-11-29T14:09:32.719Z,74.10
2017-11-29T14:12:01.444Z,74.37
2017-11-29T14:14:30.211Z,74.50
2017-11-29T14:16:59.323Z,74.38
2017-11-29T14:19:27.636Z,74.54
2017-11-29T14:21:58.451Z,74.64
2017-11-29T14:24:28.292Z,74.85
2017-11-29T14:26:57.412Z,74.73
2017-11-29T14:29:26.504Z,75.04
2017-11-29T14:31:54.859Z,75.21
2017-11-29T14:34:23.206Z,75.00
2017-11-29T14:36:51.555Z,74.94
2017-11-29T14:39:20.643Z,75.04
2017-11-29T14:41:49.035Z,75.20
2017-11-29T14:44:17.779Z,75.25
2017-11-29T14:46:46.492Z,75.56
2017-11-29T14:49:14.840Z,75.83
2017-11-29T14:51:43.176Z,76.06
2017-11-29T14:54:11.528Z,76.23
2017-11-29T14:56:39.879Z,76.57
2017-11-29T14:59:08.639Z,76.97
2017-11-29T15:01:36.998Z,77.17
2017-11-29T15:04:05.319Z,77.51
2017-11-29T15:06:33.656Z,77.65
2017-11-29T15:09:02.007Z,77.88
2017-11-29T15:11:31.135Z,77.91
2017-11-29T15:13:59.502Z,78.40
2017-11-29T15:16:28.263Z,78.60
2017-11-29T15:18:57.380Z,78.80
2017-11-29T15:21:27.259Z,79.07
2017-11-29T15:23:56.351Z,79.37
2017-11-29T15:26:25.512Z,79.81
2017-11-29T15:28:53.832Z,79.99
2017-11-29T15:31:22.195Z,80.06
2017-11-29T15:33:50.522Z,80.46
2017-11-29T15:36:18.904Z,80.45
2017-11-29T15:38:47.684Z,80.40
2017-11-29T15:41:16.023Z,80.59
2017-11-29T15:43:44.774Z,80.81
2017-11-29T15:46:13.500Z,81.05
2017-11-29T15:48:43.468Z,81.00
2017-11-29T15:51:12.756Z,81.27
2017-11-29T15:53:41.935Z,81.53
2017-11-29T15:56:10.307Z,81.60
2017-11-29T15:58:42.376Z,81.66
2017-11-29T16:01:10.771Z,81.79
2017-11-29T16:03:39.627Z,81.99
2017-11-29T16:06:08.607Z,82.11
2017-11-29T16:08:36.962Z,82.00
2017-11-29T16:11:06.148Z,82.08
2017-11-29T16:13:35.611Z,82.21
2017-11-29T16:16:04.894Z,82.65
2017-11-29T16:18:33.274Z,82.61
2017-11-29T16:21:02.371Z,82.77
2017-11-29T16:23:31.130Z,83.16
2017-11-29T16:25:59.910Z,83.03
2017-11-29T16:28:28.231Z,83.08
2017-11-29T16:30:58.306Z,83.38
2017-11-29T16:33:27.291Z,84.05
2017-11-29T16:35:56.050Z,83.86
2017-11-29T16:38:26.478Z,84.48
2017-11-29T16:40:54.857Z,84.32
2017-11-29T16:43:24.121Z,84.84
2017-11-29T16:45:53.406Z,84.46
2017-11-29T16:48:22.066Z,84.59
2017-11-29T16:50:50.451Z,84.54
2017-11-29T16:53:18.834Z,84.84
2017-11-29T16:55:47.161Z,85.03
2017-11-29T16:58:15.538Z,85.24
2017-11-29T17:00:45.055Z,85.07
2017-11-29T17:03:13.462Z,85.69
2017-11-29T17:05:41.782Z,85.93
2017-11-29T17:08:10.153Z,85.94
2017-11-29T17:10:38.931Z,86.15
2017-11-29T17:13:07.327Z,86.35
2017-11-29T17:15:36.075Z,85.94
2017-11-29T17:18:04.815Z,86.01
2017-11-29T17:20:33.955Z,85.92
2017-11-29T17:23:02.318Z,86.11
2017-11-29T17:25:30.649Z,86.41
2017-11-29T17:27:59.007Z,86.33
2017-11-29T17:30:30.210Z,86.46
2017-11-29T17:33:00.078Z,86.50
2017-11-29T17:35:28.406Z,86.77
2017-11-29T17:37:56.745Z,86.67
2017-11-29T17:40:27.326Z,87.05
2017-11-29T17:42:55.749Z,86.95
2017-11-29T17:45:24.576Z,86.71
2017-11-29T17:47:53.449Z,86.70
2017-11-29T17:50:22.525Z,87.50
2017-11-29T17:52:51.656Z,87.48
2017-11-29T17:55:20.121Z,87.76
2017-11-29T17:57:48.467Z,87.54
2017-11-29T18:00:18.365Z,87.71
2017-11-29T18:02:47.123Z,87.50
2017-11-29T18:05:16.717Z,87.59
2017-11-29T18:07:45.481Z,87.51
2017-11-29T18:10:14.621Z,87.47
2017-11-29T18:12:44.134Z,87.51
2017-11-29T18:15:12.558Z,87.98
2017-11-29T18:17:41.752Z,87.46
2017-11-29T18:20:11.209Z,87.53
2017-11-29T18:22:39.541Z,87.53
2017-11-29T18:25:09.634Z,87.63
2017-11-29T18:27:38.024Z,87.78
2017-11-29T18:30:06.762Z,87.61
2017-11-29T18:32:35.162Z,87.62
2017-11-29T18:35:03.555Z,87.59
2017-11-29T18:37:31.897Z,87.55
2017-11-29T18:40:00.280Z,87.75
2017-11-29T18:42:29.687Z,87.74
2017-11-29T18:44:58.837Z,87.85
2017-11-29T18:47:27.577Z,88.01
2017-11-29T18:49:56.093Z,87.77
2017-11-29T18:52:24.444Z,87.93
2017-11-29T18:54:53.378Z,88.27
2017-11-29T18:57:22.558Z,88.11
2017-11-29T18:59:51.733Z,88.25
2017-11-29T19:02:20.085Z,88.45
2017-11-29T19:04:48.460Z,88.50
2017-11-29T19:07:17.596Z,88.50
2017-11-29T19:09:45.977Z,88.54
2017-11-29T19:12:14.375Z,88.38
2017-11-29T19:14:43.146Z,88.32
2017-11-29T19:17:11.891Z,88.59
2017-11-29T19:19:40.792Z,88.75
2017-11-29T19:22:09.904Z,88.64
2017-11-29T19:24:38.255Z,88.72
2017-11-29T19:27:06.630Z,88.70
2017-11-29T19:29:36.564Z,88.81
2017-11-29T19:32:05.817Z,88.58
2017-11-29T19:34:35.682Z,88.56
2017-11-29T19:37:04.041Z,88.90
2017-11-29T19:39:32.420Z,88.66
2017-11-29T19:42:01.201Z,88.79
2017-11-29T19:44:30.510Z,89.41
2017-11-29T19:46:59.805Z,89.29
2017-11-29T19:49:28.184Z,89.32
2017-11-29T19:51:56.780Z,89.34
2017-11-29T19:54:29.032Z,89.25
2017-11-29T19:56:58.225Z,89.53
2017-11-29T19:59:27.492Z,89.40
2017-11-29T20:01:57.977Z,89.65
2017-11-29T20:04:26.353Z,89.62
2017-11-29T20:06:55.729Z,89.67
2017-11-29T20:09:24.872Z,89.43
2017-11-29T20:11:53.209Z,89.62
2017-11-29T20:14:22.298Z,89.68
2017-11-29T20:16:50.643Z,89.95
2017-11-29T20:19:19.868Z,89.99
2017-11-29T20:21:48.797Z,90.04
2017-11-29T20:24:17.654Z,89.61
2017-11-29T20:26:46.433Z,89.24
2017-11-29T20:29:14.812Z,89.22
2017-11-29T20:31:44.632Z,89.39
2017-11-29T20:34:14.418Z,89.18
2017-11-29T20:36:44.874Z,89.22
2017-11-29T20:39:13.279Z,89.18
2017-11-29T20:41:45.197Z,89.24
2017-11-29T20:44:14.437Z,89.22
2017-11-29T20:46:43.738Z,89.48
2017-11-29T20:49:12.484Z,89.45
2017-11-29T20:51:40.834Z,89.48
2017-11-29T20:54:11.681Z,89.40
2017-11-29T20:56:41.944Z,89.52
2017-11-29T20:59:10.440Z,89.63
2017-11-29T21:01:38.897Z,89.49
2017-11-29T21:04:08.679Z,89.59
2017-11-29T21:06:38.606Z,89.54
2017-11-29T21:09:07.948Z,89.61
2017-11-29T21:11:37.179Z,89.80
2017-11-29T21:14:06.869Z,89.64
2017-11-29T21:16:36.928Z,89.77
2017-11-29T21:19:05.697Z,89.84
2017-11-29T21:21:34.107Z,89.75
2017-11-29T21:24:02.480Z,89.79
2017-11-29T21:26:31.611Z,89.88
2017-11-29T21:29:00.573Z,89.79
2017-11-29T21:31:28.948Z,89.94
2017-11-29T21:33:58.097Z,90.10
2017-11-29T21:36:26.445Z,90.26
2017-11-29T21:38:55.547Z,89.99
2017-11-29T21:41:24.323Z,90.19
2017-11-29T21:43:52.710Z,90.19
2017-11-29T21:46:21.541Z,90.16
2017-11-29T21:48:50.693Z,90.10
2017-11-29T21:51:19.037Z,90.13
2017-11-29T21:53:47.781Z,90.20
2017-11-29T21:56:17.755Z,90.20
2017-11-29T21:58:46.868Z,90.25
2017-11-29T22:01:15.299Z,90.18
2017-11-29T22:03:43.683Z,90.21
2017-11-29T22:06:12.060Z,90.21
2017-11-29T22:08:40.399Z,90.34
2017-11-29T22:11:09.528Z,90.13
2017-11-29T22:13:37.855Z,90.05
2017-11-29T22:16:06.243Z,90.06
2017-11-29T22:18:34.579Z,90.06
2017-11-29T22:21:03.338Z,90.07
2017-11-29T22:23:32.475Z,90.05
2017-11-29T22:26:00.870Z,90.05
2017-11-29T22:28:30.891Z,90.38
2017-11-29T22:31:00.031Z,90.43
2017-11-29T22:33:29.175Z,90.18
2017-11-29T22:36:00.423Z,90.30
2017-11-29T22:38:28.796Z,90.42
2017-11-29T22:40:57.923Z,90.34
2017-11-29T22:43:26.644Z,90.39
2017-11-29T22:45:55.421Z,90.45
2017-11-29T22:48:24.152Z,90.46
2017-11-29T22:50:52.531Z,90.56
2017-11-29T22:53:20.899Z,90.40
2017-11-29T22:55:49.267Z,90.47
2017-11-29T22:58:18.371Z,90.40
2017-11-29T23:00:47.879Z,90.38
2017-11-29T23:03:16.260Z,90.41
2017-11-29T23:05:44.614Z,90.35
2017-11-29T23:08:13.347Z,90.33
2017-11-29T23:10:43.366Z,90.42
2017-11-29T23:13:11.711Z,90.63
2017-11-29T23:15:40.450Z,90.55
2017-11-29T23:18:08.815Z,90.49
2017-11-29T23:20:37.165Z,90.64
2017-11-29T23:23:05.940Z,90.78
2017-11-29T23:25:34.719Z,90.71
2017-11-29T23:28:03.104Z,90.91
2017-11-29T23:30:31.447Z,90.91
2017-11-29T23:33:00.190Z,90.91
2017-11-29T23:35:28.575Z,90.77
2017-11-29T23:37:56.928Z,90.86
2017-11-29T23:40:25.267Z,90.81
2017-11-29T23:42:54.033Z,90.84
2017-11-29T23:45:22.374Z,90.69
2017-11-29T23:47:51.209Z,90.79
2017-11-29T23:50:19.554Z,90.84
2017-11-29T23:52:47.927Z,90.80
2017-11-29T23:55:16.278Z,90.79
2017-11-29T23:57:45.046Z,90.69
